Time;durP1;ratioP1;P1;durP2;ratioP2;P2;SDS_P1;SDS_P2;PMS_P1;PMS_P2;Temp;Humidity;BMP_temperature;BMP_pressure;BME280_temperature;BME280_humidity;BME280_pressure;Samples;Min_cycle;Max_cycle;Signal;HPM_P1;HPM_P2
2022/07/31 00:02:13;;;;;;;4.80;4.40;;;20.60;79.00;;;;;;5052649;28;20484;-47
2022/07/31 00:04:39;;;;;;;7.00;5.40;;;20.60;79.10;;;;;;5053397;28;20851;-48
2022/07/31 00:07:21;;;;;;;5.90;4.33;;;20.20;79.60;;;;;;5054093;28;20482;-48
2022/07/31 00:09:48;;;;;;;9.63;5.80;;;20.70;79.70;;;;;;5051943;28;20452;-48
2022/07/31 00:12:14;;;;;;;9.70;5.90;;;20.40;80.10;;;;;;5053558;28;20435;-48
2022/07/31 00:14:41;;;;;;;6.33;4.90;;;20.90;80.90;;;;;;5053536;28;20466;-48
2022/07/31 00:17:37;;;;;;;9.00;5.20;;;20.80;80.80;;;;;;5053342;28;20440;-49
2022/07/31 00:20:04;;;;;;;5.23;4.73;;;20.50;81.00;;;;;;5052613;28;20436;-49
2022/07/31 00:22:31;;;;;;;6.23;5.23;;;20.20;80.50;;;;;;5053077;28;20477;-49
2022/07/31 00:24:57;;;;;;;9.17;5.80;;;20.30;80.80;;;;;;5053122;28;20458;-49
2022/07/31 00:27:24;;;;;;;5.80;5.30;;;20.40;81.90;;;;;;5054024;28;20440;-47
2022/07/31 00:29:51;;;;;;;8.77;4.73;;;20.80;81.90;;;;;;5051268;28;20497;-50
2022/07/31 00:32:17;;;;;;;8.17;5.10;;;20.40;81.70;;;;;;5052469;28;20436;-48
2022/07/31 00:34:50;;;;;;;5.27;4.60;;;20.20;81.80;;;;;;5051491;28;20468;-47
2022/07/31 00:37:16;;;;;;;6.60;4.77;;;20.00;81.90;;;;;;5052209;28;20956;-47
2022/07/31 00:39:43;;;;;;;9.63;5.03;;;20.50;82.60;;;;;;5051156;28;20456;-48
2022/07/31 00:42:17;;;;;;;8.17;5.80;;;20.40;82.70;;;;;;5052730;28;20478;-48
2022/07/31 00:44:58;;;;;;;5.87;5.20;;;20.40;82.80;;;;;;5052043;28;21002;-49
2022/07/31 00:47:26;;;;;;;8.20;5.20;;;20.20;82.80;;;;;;5050744;28;20948;-48
2022/07/31 00:49:58;;;;;;;6.50;4.67;;;20.10;83.00;;;;;;5053329;28;20431;-48
2022/07/31 00:52:24;;;;;;;8.03;5.53;;;20.20;83.40;;;;;;5052674;28;20431;-48
2022/07/31 00:54:51;;;;;;;6.20;5.30;;;20.30;83.60;;;;;;5052344;28;20498;-48
2022/07/31 00:57:18;;;;;;;8.67;5.17;;;20.00;83.60;;;;;;5052575;28;20951;-48
2022/07/31 01:00:06;;;;;;;8.10;5.30;;;20.50;84.40;;;;;;5052038;28;20443;-48
2022/07/31 01:02:33;;;;;;;6.63;5.60;;;20.00;84.10;;;;;;5051804;28;20558;-48
2022/07/31 01:05:01;;;;;;;6.00;5.33;;;19.90;84.00;;;;;;5051997;28;20470;-48
2022/07/31 01:07:28;;;;;;;6.90;5.37;;;20.20;84.10;;;;;;5051031;28;20447;-48
2022/07/31 01:09:55;;;;;;;9.53;5.10;;;19.90;84.80;;;;;;5052107;28;20438;-48
2022/07/31 01:12:29;;;;;;;9.77;6.13;;;20.10;85.10;;;;;;5050055;28;20447;-48
2022/07/31 01:14:59;;;;;;;6.30;5.23;;;19.50;84.60;;;;;;5050615;28;20565;-47
2022/07/31 01:17:28;;;;;;;7.33;5.10;;;19.90;85.60;;;;;;5051236;28;20458;-48
2022/07/31 01:19:55;;;;;;;5.73;5.07;;;20.40;86.30;;;;;;5051779;28;20434;-48
2022/07/31 01:22:45;;;;;;;9.67;5.80;;;19.70;85.90;;;;;;5050405;28;20779;-48
2022/07/31 01:28:53;;;;;;;6.90;5.53;;;19.80;86.20;;;;;;5050368;28;20460;-48
2022/07/31 01:31:25;;;;;;;7.23;5.67;;;19.50;86.70;;;;;;5050574;28;20503;-48
2022/07/31 01:33:59;;;;;;;7.27;5.27;;;19.30;86.60;;;;;;5050472;28;20458;-48
2022/07/31 01:36:33;;;;;;;11.00;5.57;;;19.80;87.50;;;;;;5050574;28;21055;-48
2022/07/31 01:39:01;;;;;;;8.13;5.90;;;19.50;86.70;;;;;;5050540;28;20453;-48
2022/07/31 01:41:33;;;;;;;7.33;5.30;;;19.40;87.10;;;;;;5050563;28;20977;-47
2022/07/31 01:44:03;;;;;;;7.20;5.30;;;19.50;88.30;;;;;;5050411;28;20478;-48
2022/07/31 01:46:33;;;;;;;6.07;5.40;;;19.70;88.70;;;;;;5050398;28;20985;-48
2022/07/31 01:49:02;;;;;;;7.07;5.20;;;19.60;88.20;;;;;;5050028;28;20454;-48
2022/07/31 01:51:31;;;;;;;8.80;5.60;;;19.40;89.10;;;;;;5050355;28;20461;-48
2022/07/31 01:54:01;;;;;;;13.10;5.33;;;19.50;88.80;;;;;;5051673;28;20434;-48
2022/07/31 01:56:30;;;;;;;9.07;5.70;;;19.30;88.90;;;;;;5050416;28;21083;-48
2022/07/31 01:59:00;;;;;;;6.87;6.17;;;19.50;89.30;;;;;;5049646;28;20449;-48
2022/07/31 02:01:39;;;;;;;7.47;5.97;;;19.20;89.30;;;;;;5049862;28;20446;-48
2022/07/31 02:04:18;;;;;;;7.87;5.67;;;19.00;89.60;;;;;;5050330;28;20504;-48
2022/07/31 02:06:48;;;;;;;6.13;5.17;;;19.40;90.30;;;;;;5051610;28;20427;-48
2022/07/31 02:09:15;;;;;;;8.70;6.20;;;;;;;;;;5050051;28;20812;-48
2022/07/31 02:11:42;;;;;;;7.80;6.27;;;19.00;90.20;;;;;;5049980;28;20464;-48
2022/07/31 02:14:10;;;;;;;8.57;6.33;;;19.10;90.30;;;;;;5050007;28;20446;-48
2022/07/31 02:16:38;;;;;;;8.10;6.10;;;19.20;90.40;;;;;;5051155;28;20440;-48
2022/07/31 02:19:14;;;;;;;6.20;4.97;;;19.40;90.80;;;;;;5050235;28;20465;-48
2022/07/31 02:21:41;;;;;;;6.43;5.30;;;;;;;;;;5049776;28;20460;-48
2022/07/31 02:24:08;;;;;;;6.60;5.70;;;18.90;90.50;;;;;;5052590;28;20596;-48
2022/07/31 02:26:37;;;;;;;7.60;6.17;;;19.10;90.60;;;;;;5054352;28;20564;-48
2022/07/31 02:29:06;;;;;;;6.87;6.10;;;19.30;91.10;;;;;;5053601;28;20499;-48
2022/07/31 02:31:35;;;;;;;8.37;5.60;;;19.20;90.90;;;;;;5053774;28;20450;-48
2022/07/31 02:34:03;;;;;;;7.50;5.73;;;19.20;91.30;;;;;;5053805;28;20517;-47
2022/07/31 02:36:33;;;;;;;8.87;6.27;;;19.00;91.00;;;;;;5054377;28;20516;-48
2022/07/31 02:39:02;;;;;;;10.23;6.53;;;19.10;91.40;;;;;;5053600;28;20450;-49
2022/07/31 02:41:29;;;;;;;9.13;7.67;;;18.70;91.20;;;;;;5053744;28;20452;-48
2022/07/31 02:43:57;;;;;;;8.50;7.30;;;19.10;91.70;;;;;;5053675;28;20892;-48
2022/07/31 02:46:26;;;;;;;10.70;7.30;;;19.20;91.80;;;;;;5053312;28;20633;-48
2022/07/31 02:48:54;;;;;;;8.90;7.30;;;19.00;91.40;;;;;;5053120;28;20457;-48
2022/07/31 02:51:24;;;;;;;9.77;7.80;;;18.80;91.50;;;;;;5053632;28;20821;-48
2022/07/31 02:53:51;;;;;;;10.97;7.53;;;19.30;92.00;;;;;;5053589;28;20550;-48
2022/07/31 02:56:21;;;;;;;8.80;7.43;;;19.00;91.60;;;;;;5053742;28;20704;-48
2022/07/31 02:58:48;;;;;;;14.30;8.00;;;;;;;;;;5053140;28;20453;-48
2022/07/31 03:01:21;;;;;;;8.90;6.53;;;18.50;91.60;;;;;;5053455;28;20472;-48
2022/07/31 03:04:16;;;;;;;9.30;5.87;;;18.90;92.10;;;;;;5053122;28;20476;-48
2022/07/31 03:06:46;;;;;;;7.00;6.30;;;18.70;92.10;;;;;;5053617;28;20841;-48
2022/07/31 03:09:13;;;;;;;10.30;6.87;;;18.60;92.10;;;;;;5052924;28;20450;-48
2022/07/31 03:11:42;;;;;;;6.80;5.30;;;18.50;91.80;;;;;;5053719;28;20874;-48
2022/07/31 03:14:11;;;;;;;8.13;6.20;;;18.80;91.90;;;;;;5053092;28;20449;-48
2022/07/31 03:16:40;;;;;;;9.20;5.77;;;18.70;91.80;;;;;;5053016;28;20874;-48
2022/07/31 03:19:09;;;;;;;9.67;5.97;;;18.60;91.80;;;;;;5053151;28;20537;-48
2022/07/31 03:21:36;;;;;;;6.13;5.43;;;18.30;91.90;;;;;;5053079;28;20491;-47
2022/07/31 03:24:05;;;;;;;5.63;4.93;;;18.50;91.70;;;;;;5052862;28;20474;-48
2022/07/31 03:26:32;;;;;;;6.80;5.30;;;18.80;92.00;;;;;;5053559;28;20877;-48
2022/07/31 03:29:00;;;;;;;8.30;5.60;;;18.30;92.00;;;;;;5052403;28;20460;-48
2022/07/31 03:31:27;;;;;;;8.67;5.57;;;18.60;92.00;;;;;;5053370;28;20769;-48
2022/07/31 03:33:54;;;;;;;8.50;5.63;;;19.00;92.40;;;;;;5054015;28;20950;-48
2022/07/31 03:36:21;;;;;;;8.73;6.00;;;18.30;91.80;;;;;;5051914;28;20476;-49
2022/07/31 03:38:47;;;;;;;10.87;5.60;;;18.30;92.10;;;;;;5052249;28;20818;-48
2022/07/31 03:41:25;;;;;;;7.03;5.50;;;18.80;92.40;;;;;;5049425;28;20464;-48
2022/07/31 03:43:53;;;;;;;7.40;6.10;;;18.30;92.20;;;;;;5052808;28;21012;-48
2022/07/31 03:46:22;;;;;;;8.10;5.63;;;18.40;92.10;;;;;;5052694;28;20824;-48
2022/07/31 03:48:50;;;;;;;8.07;5.10;;;18.60;92.40;;;;;;5053622;28;20433;-48
2022/07/31 03:51:18;;;;;;;8.90;5.77;;;18.60;92.50;;;;;;5052446;28;20449;-48
2022/07/31 03:53:45;;;;;;;8.17;5.57;;;;;;;;;;5052367;28;20454;-48
2022/07/31 03:56:32;;;;;;;9.07;6.10;;;18.50;92.30;;;;;;5052965;28;20572;-48
2022/07/31 03:58:59;;;;;;;7.03;6.33;;;18.60;92.40;;;;;;5051877;28;20488;-48
2022/07/31 04:01:26;;;;;;;7.40;6.17;;;18.70;92.90;;;;;;5051877;28;20452;-48
2022/07/31 04:04:00;;;;;;;9.13;6.03;;;18.40;92.50;;;;;;5052323;28;20855;-48
2022/07/31 04:06:36;;;;;;;6.37;5.73;;;18.40;92.60;;;;;;5053315;28;20460;-48
2022/07/31 04:09:03;;;;;;;7.30;5.20;;;19.00;93.20;;;;;;5051844;28;20499;-48
2022/07/31 04:11:32;;;;;;;8.33;6.30;;;18.80;93.50;;;;;;5052285;28;20503;-48
2022/07/31 04:14:03;;;;;;;8.13;5.80;;;18.30;92.90;;;;;;5051949;28;20478;-48
2022/07/31 04:16:30;;;;;;;7.53;6.70;;;18.50;92.80;;;;;;5052145;28;20539;-48
2022/07/31 04:18:57;;;;;;;7.40;6.57;;;18.40;93.10;;;;;;5052002;28;20487;-48
2022/07/31 04:21:24;;;;;;;13.50;5.70;;;18.60;92.90;;;;;;5052088;28;21044;-48
2022/07/31 04:23:51;;;;;;;6.30;5.50;;;18.70;93.00;;;;;;5051922;28;20987;-48
2022/07/31 04:26:38;;;;;;;7.37;6.10;;;18.50;93.00;;;;;;5053744;28;20559;-48
2022/07/31 04:29:04;;;;;;;8.80;6.50;;;19.00;92.80;;;;;;5052785;28;20437;-48
2022/07/31 04:31:32;;;;;;;8.63;5.90;;;18.90;92.60;;;;;;5051848;28;20479;-48
2022/07/31 04:33:58;;;;;;;7.43;6.33;;;19.40;92.90;;;;;;5051677;28;20446;-48
2022/07/31 04:36:25;;;;;;;6.63;5.50;;;19.60;92.70;;;;;;5052138;28;20509;-48
2022/07/31 04:38:51;;;;;;;10.80;6.33;;;19.50;92.40;;;;;;5051308;28;20458;-48
2022/07/31 04:41:18;;;;;;;7.83;5.83;;;19.90;92.10;;;;;;5051520;28;20454;-48
2022/07/31 04:43:46;;;;;;;11.00;6.87;;;19.90;91.90;;;;;;5051514;28;20482;-48
2022/07/31 04:46:13;;;;;;;7.80;6.33;;;19.90;91.90;;;;;;5051612;28;20474;-48
2022/07/31 04:48:40;;;;;;;8.37;5.77;;;19.90;91.40;;;;;;5051300;28;20454;-48
2022/07/31 04:51:06;;;;;;;9.90;5.97;;;20.30;91.10;;;;;;5051659;28;20473;-48
2022/07/31 04:53:33;;;;;;;8.50;5.77;;;20.20;90.80;;;;;;5051403;28;20450;-48
2022/07/31 04:58:47;;;;;;;8.53;5.60;;;20.30;89.90;;;;;;5050835;28;20453;-49
2022/07/31 05:01:13;;;;;;;7.30;5.20;;;20.30;89.80;;;;;;5050993;28;20454;-48
2022/07/31 05:03:40;;;;;;;6.30;5.47;;;20.60;89.40;;;;;;5050988;28;20482;-48
2022/07/31 05:06:10;;;;;;;6.10;5.50;;;20.60;87.90;;;;;;5052992;28;20496;-49
2022/07/31 05:08:36;;;;;;;7.30;5.33;;;20.40;87.90;;;;;;5052050;28;20439;-49
2022/07/31 05:13:49;;;;;;;9.23;6.10;;;21.00;86.70;;;;;;5050773;28;20431;-48
2022/07/31 05:16:17;;;;;;;7.50;5.90;;;21.00;86.80;;;;;;5052338;28;20446;-49
2022/07/31 05:18:45;;;;;;;6.37;5.03;;;21.50;86.70;;;;;;5051938;28;20463;-49
2022/07/31 05:21:44;;;;;;;8.30;6.00;;;21.40;86.30;;;;;;5039712;28;20445;-49
2022/07/31 05:24:29;;;;;;;7.57;6.13;;;21.40;85.80;;;;;;5050594;28;20495;-48
2022/07/31 05:27:05;;;;;;;5.30;4.80;;;21.90;85.80;;;;;;5051137;28;20540;-49
2022/07/31 05:29:33;;;;;;;5.80;4.70;;;21.50;84.00;;;;;;5050256;28;20483;-49
2022/07/31 05:32:00;;;;;;;15.93;5.00;;;21.80;84.40;;;;;;5050553;28;20480;-49
2022/07/31 05:34:29;;;;;;;8.73;5.10;;;21.90;82.20;;;;;;5050693;28;20476;-49
2022/07/31 05:36:56;;;;;;;6.60;4.40;;;21.70;82.80;;;;;;5052174;28;20437;-49
2022/07/31 05:39:23;;;;;;;9.53;5.03;;;22.00;82.20;;;;;;5050150;28;20493;-49
2022/07/31 05:42:09;;;;;;;7.53;5.07;;;21.70;81.30;;;;;;5052238;28;20433;-47
2022/07/31 05:45:19;;;;;;;6.43;4.70;;;22.20;81.40;;;;;;5052283;28;20496;-49
2022/07/31 05:47:47;;;;;;;7.00;4.70;;;21.90;79.70;;;;;;5050439;28;20445;-48
2022/07/31 05:50:14;;;;;;;5.93;4.30;;;22.40;80.40;;;;;;5050050;28;20449;-48
2022/07/31 05:52:41;;;;;;;7.60;4.63;;;22.50;79.40;;;;;;5050744;28;20442;-49
2022/07/31 05:55:18;;;;;;;9.80;5.47;;;22.50;79.10;;;;;;5050234;28;20988;-48
2022/07/31 05:58:04;;;;;;;9.33;4.73;;;22.60;79.80;;;;;;5051593;28;20483;-49
2022/07/31 06:00:32;;;;;;;5.60;4.87;;;22.60;79.30;;;;;;5050993;28;20438;-49
2022/07/31 06:02:59;;;;;;;8.00;4.30;;;22.70;78.50;;;;;;5050358;28;20447;-48
2022/07/31 06:05:45;;;;;;;5.80;4.20;;;22.80;79.20;;;;;;5051331;28;20487;-48
2022/07/31 06:08:12;;;;;;;9.53;4.67;;;22.80;78.70;;;;;;5050210;28;20447;-48
2022/07/31 06:10:43;;;;;;;5.27;4.60;;;22.70;79.20;;;;;;5049907;28;20457;-48
2022/07/31 06:13:11;;;;;;;9.03;4.90;;;22.90;78.60;;;;;;5050051;28;20447;-48
2022/07/31 06:15:39;;;;;;;6.90;5.20;;;23.00;79.60;;;;;;5050121;28;20467;-48
2022/07/31 06:18:06;;;;;;;9.70;5.60;;;23.10;79.70;;;;;;5050166;28;20480;-48
2022/07/31 06:20:33;;;;;;;7.30;5.40;;;23.10;79.00;;;;;;5049600;28;20538;-49
2022/07/31 06:22:59;;;;;;;6.30;5.70;;;22.70;78.90;;;;;;5050089;28;20513;-49
2022/07/31 06:26:01;;;;;;;8.13;6.43;;;23.20;79.40;;;;;;5050070;28;20943;-48
2022/07/31 06:28:27;;;;;;;13.43;6.77;;;23.30;79.40;;;;;;5049834;28;20449;-48
2022/07/31 06:30:55;;;;;;;8.77;6.20;;;23.30;78.80;;;;;;5050116;28;20972;-48
2022/07/31 06:33:22;;;;;;;8.03;6.33;;;23.40;79.50;;;;;;5049728;28;20445;-49
2022/07/31 06:35:49;;;;;;;12.17;6.67;;;23.30;79.30;;;;;;5049842;28;20483;-49
2022/07/31 06:38:37;;;;;;;13.33;6.17;;;23.10;79.10;;;;;;5049575;28;20509;-48
2022/07/31 06:41:46;;;;;;;6.80;6.10;;;23.50;79.10;;;;;;5013984;28;20453;-48
2022/07/31 06:44:45;;;;;;;12.57;6.57;;;23.70;78.40;;;;;;5006872;28;20532;-48
2022/07/31 06:47:42;;;;;;;7.70;6.60;;;23.40;78.90;;;;;;5051028;28;20439;-48
2022/07/31 06:50:22;;;;;;;7.47;6.60;;;23.70;78.80;;;;;;5049787;28;20452;-48
2022/07/31 06:52:57;;;;;;;10.20;6.67;;;23.50;78.30;;;;;;5050427;28;20456;-48
2022/07/31 06:55:24;;;;;;;8.67;6.67;;;23.90;77.50;;;;;;5049449;28;20464;-49
2022/07/31 06:57:51;;;;;;;7.43;6.67;;;23.90;78.70;;;;;;5049424;28;20790;-48
2022/07/31 07:00:19;;;;;;;7.23;6.13;;;23.40;78.00;;;;;;5049308;28;20451;-48
2022/07/31 07:02:47;;;;;;;9.93;7.20;;;23.90;78.40;;;;;;5050103;28;20448;-48
2022/07/31 07:05:14;;;;;;;7.97;6.20;;;23.70;77.80;;;;;;5049059;28;20491;-49
2022/07/31 07:07:41;;;;;;;8.83;6.70;;;23.60;77.70;;;;;;5049511;28;20450;-48
2022/07/31 07:10:09;;;;;;;7.13;6.00;;;24.30;78.40;;;;;;5048957;28;20456;-48
2022/07/31 07:13:00;;;;;;;7.17;6.47;;;24.00;77.90;;;;;;5055215;28;20678;-49
2022/07/31 07:15:31;;;;;;;8.30;6.30;;;23.80;77.90;;;;;;5052762;28;20479;-48
2022/07/31 07:17:59;;;;;;;6.60;5.87;;;23.90;78.10;;;;;;5053338;28;20556;-48
2022/07/31 07:20:35;;;;;;;6.33;5.30;;;23.60;77.50;;;;;;5052594;28;20460;-49
2022/07/31 07:23:01;;;;;;;6.20;5.60;;;24.00;78.20;;;;;;5052962;28;20452;-48
2022/07/31 07:25:45;;;;;;;6.20;5.60;;;23.70;77.90;;;;;;5052839;28;20483;-48
2022/07/31 07:28:14;;;;;;;6.00;5.40;;;23.80;77.30;;;;;;5052968;28;20465;-49
2022/07/31 07:30:41;;;;;;;5.33;4.80;;;24.00;77.40;;;;;;5052808;28;20480;-48
2022/07/31 07:33:09;;;;;;;7.73;5.50;;;23.60;76.70;;;;;;5052797;28;20929;-49
2022/07/31 07:35:37;;;;;;;5.87;5.37;;;23.90;76.30;;;;;;5052615;28;20885;-49
2022/07/31 07:38:07;;;;;;;6.57;5.10;;;23.70;75.50;;;;;;5052710;28;20449;-49
2022/07/31 07:40:35;;;;;;;6.93;4.40;;;24.00;75.50;;;;;;5052076;28;20457;-49
2022/07/31 07:43:02;;;;;;;9.43;4.77;;;23.60;74.80;;;;;;5052082;28;20500;-49
2022/07/31 07:45:29;;;;;;;9.60;4.40;;;24.00;74.60;;;;;;5052433;28;20567;-48
2022/07/31 07:47:56;;;;;;;6.80;4.27;;;23.50;73.80;;;;;;5053874;28;20506;-49
2022/07/31 07:50:24;;;;;;;5.50;4.17;;;24.10;73.30;;;;;;5051916;28;20821;-49
2022/07/31 07:53:19;;;;;;;6.33;4.60;;;24.10;72.80;;;;;;5053389;28;20445;-49
2022/07/31 07:56:25;;;;;;;5.10;4.43;;;24.10;72.70;;;;;;5031071;28;20457;-49
2022/07/31 07:59:31;;;;;;;11.40;4.63;;;23.90;72.90;;;;;;5030956;28;20555;-49
2022/07/31 08:02:21;;;;;;;4.53;4.07;;;24.30;72.70;;;;;;5051020;28;20448;-49
2022/07/31 08:04:48;;;;;;;8.07;5.10;;;23.70;72.20;;;;;;5052182;28;21022;-49
2022/07/31 08:07:16;;;;;;;9.03;4.87;;;24.20;72.60;;;;;;5051761;28;20459;-49
2022/07/31 08:09:43;;;;;;;5.97;4.30;;;24.20;71.80;;;;;;5051997;28;20822;-49
2022/07/31 08:12:34;;;;;;;6.60;4.37;;;;;;;;;;5052234;28;20539;-50
2022/07/31 08:15:05;;;;;;;4.93;3.57;;;;;;;;;;5053401;28;20552;-49
2022/07/31 08:17:54;;;;;;;4.80;4.30;;;24.20;71.40;;;;;;5053210;28;20460;-49
2022/07/31 08:20:22;;;;;;;5.53;4.33;;;24.00;72.00;;;;;;5051479;28;20552;-49
2022/07/31 08:22:57;;;;;;;15.33;4.83;;;24.30;71.70;;;;;;5051714;28;20449;-49
2022/07/31 08:26:07;;;;;;;5.43;4.50;;;24.30;71.70;;;;;;5051866;28;21105;-49
2022/07/31 08:28:33;;;;;;;6.97;4.40;;;24.30;71.60;;;;;;5017039;28;20473;-49
2022/07/31 08:31:01;;;;;;;4.37;3.63;;;;;;;;;;5052186;28;20476;-49
2022/07/31 08:33:27;;;;;;;5.97;4.30;;;24.40;71.80;;;;;;5051547;28;20480;-49
2022/07/31 08:35:55;;;;;;;4.50;4.07;;;24.40;71.60;;;;;;5051800;28;20854;-49
2022/07/31 08:38:23;;;;;;;7.10;4.07;;;24.50;72.40;;;;;;5051694;28;20493;-48
2022/07/31 08:41:11;;;;;;;5.43;4.57;;;24.50;71.60;;;;;;5054735;28;20450;-49
2022/07/31 08:43:38;;;;;;;7.90;3.97;;;24.50;71.60;;;;;;5051520;28;20453;-49
2022/07/31 08:46:06;;;;;;;7.13;3.57;;;24.60;73.30;;;;;;5051357;28;21016;-49
2022/07/31 08:48:40;;;;;;;4.83;3.60;;;24.60;71.00;;;;;;5051255;28;20545;-48
2022/07/31 08:51:10;;;;;;;4.97;3.67;;;24.60;70.60;;;;;;5052791;28;20905;-49
2022/07/31 08:54:25;;;;;;;4.23;3.50;;;24.60;70.60;;;;;;5052389;28;20472;-49
2022/07/31 08:56:52;;;;;;;3.90;3.50;;;24.50;70.40;;;;;;5051180;28;20450;-49
2022/07/31 08:59:20;;;;;;;4.63;3.67;;;24.70;70.50;;;;;;5052053;28;20786;-49
2022/07/31 09:01:47;;;;;;;5.10;3.53;;;24.70;71.50;;;;;;5050809;28;20451;-49
2022/07/31 09:04:14;;;;;;;4.00;3.70;;;24.80;71.00;;;;;;5050736;28;20451;-49
2022/07/31 09:06:41;;;;;;;8.57;4.30;;;24.80;70.90;;;;;;5050804;28;20525;-49
2022/07/31 09:09:09;;;;;;;8.60;3.80;;;24.50;70.80;;;;;;5050530;28;20446;-49
2022/07/31 09:11:46;;;;;;;7.70;4.03;;;24.60;70.80;;;;;;5051013;28;20941;-49
2022/07/31 09:14:34;;;;;;;6.10;3.57;;;24.90;70.20;;;;;;5052444;28;20572;-49
2022/07/31 09:17:02;;;;;;;4.37;3.60;;;24.50;70.40;;;;;;5050831;28;20549;-49
2022/07/31 09:19:37;;;;;;;6.63;3.17;;;24.60;70.30;;;;;;5050776;28;20469;-49
2022/07/31 09:22:20;;;;;;;5.40;3.23;;;24.80;70.30;;;;;;5050626;28;20478;-49
2022/07/31 09:24:49;;;;;;;3.57;3.27;;;25.00;70.30;;;;;;5050573;28;20482;-49
2022/07/31 09:27:16;;;;;;;5.37;3.80;;;25.00;69.10;;;;;;5051905;28;20436;-49
2022/07/31 09:29:45;;;;;;;3.97;3.57;;;25.00;69.40;;;;;;5050099;28;20549;-49
2022/07/31 09:32:24;;;;;;;4.03;3.63;;;24.90;68.20;;;;;;5051933;28;20439;-49
2022/07/31 09:35:07;;;;;;;4.57;3.20;;;24.90;68.40;;;;;;5050152;28;20509;-49
2022/07/31 09:37:34;;;;;;;5.00;3.37;;;24.90;68.20;;;;;;5050391;28;20489;-49
2022/07/31 09:40:38;;;;;;;6.47;4.07;;;25.00;68.50;;;;;;5051669;28;20558;-48
2022/07/31 09:43:33;;;;;;;6.07;3.63;;;24.90;68.70;;;;;;5051541;28;20450;-48
2022/07/31 09:46:01;;;;;;;5.30;3.60;;;25.00;68.90;;;;;;5049952;28;20673;-48
2022/07/31 09:48:28;;;;;;;5.17;3.77;;;25.20;69.80;;;;;;5049646;28;20456;-49
2022/07/31 09:50:55;;;;;;;3.80;3.20;;;24.70;69.90;;;;;;5051598;28;20441;-49
2022/07/31 09:53:23;;;;;;;10.70;3.47;;;25.10;69.10;;;;;;5049820;28;20480;-47
2022/07/31 09:55:57;;;;;;;4.10;3.47;;;24.90;68.30;;;;;;5050067;28;20475;-48
2022/07/31 09:58:24;;;;;;;4.20;3.50;;;25.10;68.50;;;;;;5049774;28;20496;-47
2022/07/31 10:00:53;;;;;;;6.33;3.17;;;24.80;68.00;;;;;;5050127;28;20545;-47
2022/07/31 10:03:20;;;;;;;3.90;3.40;;;25.30;67.60;;;;;;5050134;28;20473;-49
2022/07/31 10:05:49;;;;;;;3.80;3.50;;;25.00;67.70;;;;;;5062589;22;20507;-46
2022/07/31 10:08:17;;;;;;;7.50;3.43;;;25.00;67.70;;;;;;5029689;28;21020;-48
2022/07/31 10:11:18;;;;;;;4.87;3.07;;;25.40;67.20;;;;;;5031850;28;20449;-47
2022/07/31 10:14:15;;;;;;;4.80;2.77;;;25.50;65.90;;;;;;5030763;28;20467;-47
2022/07/31 10:16:44;;;;;;;4.67;3.70;;;25.60;65.10;;;;;;5030191;28;20463;-47
2022/07/31 10:19:37;;;;;;;3.43;3.13;;;25.60;65.80;;;;;;5030101;28;20966;-46
2022/07/31 10:22:27;;;;;;;4.83;3.70;;;25.50;66.30;;;;;;5031073;28;20855;-47
2022/07/31 10:25:00;;;;;;;4.73;3.70;;;25.30;66.80;;;;;;5030000;28;20483;-46
2022/07/31 10:27:29;;;;;;;4.87;4.13;;;25.60;67.50;;;;;;5030298;28;20474;-48
2022/07/31 10:30:02;;;;;;;8.83;4.07;;;25.60;67.30;;;;;;5030026;28;20444;-47
2022/07/31 10:32:29;;;;;;;5.93;3.87;;;25.30;66.80;;;;;;5031949;28;20432;-47
2022/07/31 10:35:14;;;;;;;6.57;4.57;;;25.70;66.50;;;;;;5031273;28;21017;-47
2022/07/31 10:38:03;;;;;;;4.50;3.30;;;25.70;65.80;;;;;;5029935;28;20459;-48
2022/07/31 10:40:45;;;;;;;6.10;3.57;;;25.50;65.60;;;;;;5029663;28;20540;-47
2022/07/31 10:43:19;;;;;;;4.47;4.00;;;25.40;65.60;;;;;;5029451;28;20490;-47
2022/07/31 10:46:03;;;;;;;5.10;4.60;;;25.80;66.10;;;;;;5032534;28;20537;-47
2022/07/31 10:48:53;;;;;;;3.77;3.40;;;25.80;66.30;;;;;;5029296;28;20459;-47
2022/07/31 10:51:52;;;;;;;6.30;3.47;;;25.80;66.30;;;;;;5035454;28;20534;-49
2022/07/31 10:54:50;;;;;;;5.00;3.53;;;26.00;66.20;;;;;;5011679;28;20446;-47
2022/07/31 10:57:35;;;;;;;4.73;3.47;;;24.40;64.60;;;;;;5034695;28;20483;-47
2022/07/31 11:00:25;;;;;;;5.53;3.73;;;25.80;65.80;;;;;;5033279;28;20827;-48
2022/07/31 11:03:15;;;;;;;5.50;3.60;;;26.00;65.40;;;;;;5035262;28;20425;-48
2022/07/31 11:06:00;;;;;;;10.30;3.90;;;25.90;65.10;;;;;;5034349;28;20482;-47
2022/07/31 11:08:47;;;;;;;6.07;3.50;;;25.90;65.40;;;;;;5033135;28;20429;-47
2022/07/31 11:11:36;;;;;;;7.17;3.07;;;25.90;65.50;;;;;;5034773;28;20447;-47
2022/07/31 11:14:31;;;;;;;3.73;3.23;;;25.90;65.40;;;;;;5035182;28;20789;-47
2022/07/31 11:17:30;;;;;;;4.13;3.53;;;25.70;64.80;;;;;;5012960;28;20439;-47
2022/07/31 11:20:22;;;;;;;4.63;4.23;;;25.90;65.10;;;;;;5034311;28;20443;-47
2022/07/31 11:22:59;;;;;;;5.50;3.33;;;26.20;65.50;;;;;;5034073;28;20450;-47
2022/07/31 11:25:29;;;;;;;7.03;4.13;;;26.30;65.30;;;;;;5034077;28;20473;-47
2022/07/31 11:27:57;;;;;;;5.53;3.90;;;26.40;65.30;;;;;;5034110;28;20909;-48
2022/07/31 11:30:24;;;;;;;4.40;3.67;;;26.50;64.90;;;;;;5034046;28;20439;-46
2022/07/31 11:32:53;;;;;;;4.27;3.87;;;26.60;64.20;;;;;;5034518;28;20438;-47
2022/07/31 11:35:27;;;;;;;5.37;3.10;;;26.30;63.40;;;;;;5033867;28;20476;-47
2022/07/31 11:37:54;;;;;;;4.50;2.90;;;26.60;63.20;;;;;;5034174;28;20429;-48
2022/07/31 11:40:21;;;;;;;5.67;3.40;;;26.60;63.10;;;;;;5033657;28;20450;-46
2022/07/31 11:42:48;;;;;;;4.27;2.97;;;26.60;62.90;;;;;;5033857;28;20453;-47
2022/07/31 11:45:15;;;;;;;4.33;3.27;;;26.80;62.90;;;;;;5033817;28;20542;-48
2022/07/31 11:47:45;;;;;;;3.70;3.13;;;26.90;62.10;;;;;;5033820;28;20459;-47
2022/07/31 11:50:13;;;;;;;7.13;4.20;;;27.00;61.90;;;;;;5033293;28;20951;-47
2022/07/31 11:52:42;;;;;;;8.70;4.17;;;26.90;62.20;;;;;;5034031;28;20444;-47
2022/07/31 11:55:11;;;;;;;4.50;3.30;;;27.00;62.20;;;;;;5033465;28;20463;-47
2022/07/31 11:57:38;;;;;;;4.63;3.63;;;27.10;62.10;;;;;;5033102;28;20506;-47
2022/07/31 12:00:10;;;;;;;5.27;3.43;;;27.10;61.70;;;;;;5033162;28;20446;-46
2022/07/31 12:02:42;;;;;;;6.60;3.50;;;27.30;61.70;;;;;;5033680;28;20420;-47
2022/07/31 12:05:11;;;;;;;3.57;3.27;;;27.40;61.50;;;;;;5033530;28;20474;-46
2022/07/31 12:07:40;;;;;;;6.63;4.90;;;27.40;61.60;;;;;;5034069;28;20455;-48
2022/07/31 12:10:10;;;;;;;4.60;3.83;;;27.30;61.60;;;;;;5032875;28;20440;-47
2022/07/31 12:12:37;;;;;;;7.33;4.00;;;27.50;61.50;;;;;;5033730;28;20903;-46
2022/07/31 12:15:14;;;;;;;6.87;4.27;;;27.40;61.00;;;;;;5033503;28;20827;-47
2022/07/31 12:17:41;;;;;;;3.43;2.83;;;27.70;61.00;;;;;;5033450;28;20435;-48
2022/07/31 12:20:08;;;;;;;6.47;5.00;;;27.70;60.50;;;;;;5032842;28;20835;-48
2022/07/31 12:22:35;;;;;;;5.87;3.70;;;27.80;60.60;;;;;;5033646;28;20475;-47
2022/07/31 12:25:08;;;;;;;6.23;3.63;;;27.80;60.20;;;;;;5033671;28;20464;-47
2022/07/31 12:27:35;;;;;;;8.67;6.67;;;27.80;60.00;;;;;;5031785;28;20484;-47
2022/07/31 12:30:13;;;;;;;4.27;3.50;;;27.80;59.80;;;;;;5032459;28;20526;-47
2022/07/31 12:32:39;;;;;;;4.73;3.10;;;27.80;59.60;;;;;;5031838;28;20462;-48
2022/07/31 12:35:07;;;;;;;6.43;3.90;;;27.70;59.80;;;;;;5033251;28;20459;-48
2022/07/31 12:37:42;;;;;;;4.83;3.50;;;27.70;59.70;;;;;;5033307;28;20545;-47
2022/07/31 12:40:22;;;;;;;4.87;3.70;;;27.70;59.20;;;;;;5032520;28;20808;-47
2022/07/31 12:42:48;;;;;;;5.30;3.50;;;27.70;58.90;;;;;;5032760;28;20664;-48
2022/07/31 12:45:15;;;;;;;5.80;3.83;;;27.80;58.80;;;;;;5032277;28;20455;-49
2022/07/31 12:47:42;;;;;;;5.20;3.30;;;28.20;58.70;;;;;;5032329;28;20833;-47
2022/07/31 12:50:09;;;;;;;6.70;3.60;;;28.40;58.50;;;;;;5032281;28;20479;-47
2022/07/31 12:52:36;;;;;;;6.13;3.87;;;28.50;58.70;;;;;;5032782;28;20462;-48
2022/07/31 12:55:04;;;;;;;5.17;3.50;;;28.30;58.70;;;;;;5032963;28;20453;-48
2022/07/31 12:57:32;;;;;;;3.40;3.07;;;28.50;59.20;;;;;;5032484;28;20442;-47
2022/07/31 12:59:58;;;;;;;4.90;4.03;;;28.50;59.30;;;;;;5032402;28;20528;-48
2022/07/31 13:02:25;;;;;;;5.13;3.20;;;28.60;59.50;;;;;;5032367;28;20431;-49
2022/07/31 13:04:52;;;;;;;4.87;3.43;;;28.40;59.40;;;;;;5032357;28;20489;-48
2022/07/31 13:07:19;;;;;;;6.20;3.90;;;28.30;59.40;;;;;;5032038;28;20525;-47
2022/07/31 13:09:45;;;;;;;10.27;3.60;;;28.20;59.20;;;;;;5030998;28;20442;-47
2022/07/31 13:12:12;;;;;;;6.50;3.57;;;28.40;59.10;;;;;;5032469;28;20451;-47
2022/07/31 13:14:40;;;;;;;6.67;3.80;;;28.50;58.90;;;;;;5032177;28;20913;-48
2022/07/31 13:17:07;;;;;;;5.37;3.53;;;28.60;58.50;;;;;;5032479;28;20799;-48
2022/07/31 13:19:33;;;;;;;4.87;3.20;;;28.30;57.80;;;;;;5031891;28;20514;-48
2022/07/31 13:22:00;;;;;;;3.00;2.70;;;28.70;57.50;;;;;;5031504;28;20435;-48
2022/07/31 13:24:27;;;;;;;6.97;3.10;;;;;;;;;;5031970;28;20435;-49
2022/07/31 13:26:57;;;;;;;3.37;3.07;;;28.70;55.20;;;;;;5032071;28;20552;-47